createdAt,value
2018-07-05T00:00:20.481Z,0.00
2018-07-05T00:01:21.134Z,0.00
2018-07-05T00:02:20.763Z,0.00
2018-07-05T00:03:20.070Z,0.00
2018-07-05T00:04:20.749Z,0.00
2018-07-05T00:05:44.383Z,0.00
2018-07-05T00:06:44.869Z,0.00
2018-07-05T00:07:44.612Z,0.00
2018-07-05T00:08:45.035Z,0.00
2018-07-05T00:09:45.182Z,0.00
2018-07-05T00:10:45.000Z,0.00
2018-07-05T00:12:06.022Z,0.00
2018-07-05T00:13:06.679Z,0.00
2018-07-05T00:14:06.103Z,0.00
2018-07-05T00:15:06.827Z,0.00
2018-07-05T00:16:06.154Z,0.00
2018-07-05T00:17:06.906Z,0.00
2018-07-05T00:18:06.315Z,0.00
2018-07-05T00:19:07.378Z,0.00
2018-07-05T00:20:06.647Z,0.00
2018-07-05T00:21:07.078Z,0.00
2018-07-05T00:22:06.759Z,0.00
2018-07-05T00:23:06.363Z,0.00
2018-07-05T00:24:06.873Z,0.00
2018-07-05T00:25:06.420Z,0.00
2018-07-05T00:26:28.285Z,0.00
2018-07-05T00:27:29.029Z,0.00
2018-07-05T00:28:28.921Z,0.00
2018-07-05T00:29:28.669Z,0.00
2018-07-05T00:30:29.290Z,0.00
2018-07-05T00:31:28.632Z,0.00
2018-07-05T00:32:28.232Z,0.00
2018-07-05T00:33:28.586Z,0.00
2018-07-05T00:34:28.061Z,0.00
2018-07-05T00:35:49.989Z,0.00
2018-07-05T00:36:50.331Z,0.00
2018-07-05T00:37:50.712Z,0.00
2018-07-05T00:39:11.379Z,0.00
2018-07-05T00:40:11.621Z,0.00
2018-07-05T00:41:11.804Z,0.00
2018-07-05T00:42:12.306Z,0.00
2018-07-05T00:43:11.764Z,0.00
2018-07-05T00:44:13.550Z,0.00
2018-07-05T00:45:12.018Z,0.00
2018-07-05T00:46:33.080Z,0.00
2018-07-05T00:47:33.422Z,0.00
2018-07-05T00:48:32.999Z,0.00
2018-07-05T00:49:54.694Z,0.00
2018-07-05T00:50:55.005Z,0.00
2018-07-05T00:51:54.779Z,0.00
2018-07-05T00:52:55.534Z,0.00
2018-07-05T00:54:16.262Z,0.00
2018-07-05T00:55:16.614Z,0.00
2018-07-05T00:56:17.198Z,0.00
2018-07-05T00:57:37.989Z,0.00
2018-07-05T00:58:38.415Z,0.00
2018-07-05T00:59:38.252Z,0.00
2018-07-05T01:00:39.197Z,0.00
2018-07-05T01:01:38.840Z,0.00
2018-07-05T01:02:38.527Z,0.00
2018-07-05T01:03:59.325Z,0.00
2018-07-05T01:04:59.719Z,0.00
2018-07-05T01:06:00.421Z,0.00
2018-07-05T01:06:59.980Z,0.00
2018-07-05T01:07:59.817Z,0.00
2018-07-05T01:09:00.214Z,0.00
2018-07-05T01:09:59.819Z,0.00
2018-07-05T01:11:00.480Z,0.00
2018-07-05T01:11:59.674Z,0.00
2018-07-05T01:13:00.221Z,0.00
2018-07-05T01:13:59.672Z,0.00
2018-07-05T01:15:00.083Z,0.00
2018-07-05T01:15:59.721Z,0.00
2018-07-05T01:17:00.161Z,0.00
2018-07-05T01:17:59.755Z,0.00
2018-07-05T01:19:21.707Z,0.00
2018-07-05T01:20:22.220Z,0.00
2018-07-05T01:21:21.700Z,0.00
2018-07-05T01:22:22.392Z,0.00
2018-07-05T01:23:22.089Z,0.00
2018-07-05T01:24:22.566Z,0.00
2018-07-05T01:25:22.084Z,0.00
2018-07-05T01:26:21.467Z,0.00
2018-07-05T01:27:22.217Z,0.00
2018-07-05T01:28:21.839Z,0.00
2018-07-05T01:29:22.080Z,0.00
2018-07-05T01:30:22.437Z,0.00
2018-07-05T01:31:43.467Z,0.00
2018-07-05T01:32:44.012Z,0.00
2018-07-05T01:33:43.430Z,0.00
2018-07-05T01:34:43.994Z,0.00
2018-07-05T01:35:43.450Z,0.00
2018-07-05T01:36:44.322Z,0.00
2018-07-05T01:37:43.792Z,0.00
2018-07-05T01:38:44.068Z,0.00
2018-07-05T01:39:43.374Z,0.00
2018-07-05T01:40:43.586Z,0.00
2018-07-05T01:41:44.003Z,0.00
2018-07-05T01:42:43.428Z,0.00
2018-07-05T01:43:44.011Z,0.00
2018-07-05T01:45:04.562Z,0.00
2018-07-05T01:46:05.274Z,0.00
2018-07-05T01:47:04.682Z,0.00
2018-07-05T01:48:05.276Z,0.00
2018-07-05T01:49:04.687Z,0.00
2018-07-05T01:50:04.959Z,0.00
2018-07-05T01:51:05.255Z,0.00
2018-07-05T01:52:04.584Z,0.00
2018-07-05T01:53:05.497Z,0.00
2018-07-05T01:54:05.069Z,0.00
2018-07-05T01:55:04.875Z,0.00
2018-07-05T01:56:04.443Z,0.00
2018-07-05T01:57:04.808Z,0.00
2018-07-05T01:58:04.345Z,0.00
2018-07-05T01:59:04.800Z,0.00
2018-07-05T02:00:05.457Z,0.00
2018-07-05T02:01:05.000Z,0.00
2018-07-05T02:02:04.534Z,0.00
2018-07-05T02:03:04.906Z,0.00
2018-07-05T02:04:05.471Z,0.00
2018-07-05T02:05:04.805Z,0.00
2018-07-05T02:06:05.161Z,0.00
2018-07-05T02:07:04.739Z,0.00
2018-07-05T02:08:05.313Z,0.00
2018-07-05T02:09:04.853Z,0.00
2018-07-05T02:10:05.484Z,0.00
2018-07-05T02:11:05.049Z,1.00
2018-07-05T02:12:05.243Z,1.00
2018-07-05T02:13:05.141Z,1.00
2018-07-05T02:14:04.991Z,1.00
2018-07-05T02:15:04.621Z,0.00
2018-07-05T02:16:05.096Z,0.00
2018-07-05T02:17:04.728Z,1.00
2018-07-05T02:18:26.456Z,1.00
2018-07-05T02:19:27.216Z,1.00
2018-07-05T02:20:26.884Z,1.00
2018-07-05T02:21:27.425Z,1.00
2018-07-05T02:22:27.026Z,1.00
2018-07-05T02:23:26.666Z,1.00
2018-07-05T02:24:27.214Z,2.00
2018-07-05T02:25:26.751Z,1.00
2018-07-05T02:26:27.465Z,2.00
2018-07-05T02:27:27.188Z,2.00
2018-07-05T02:28:26.968Z,2.00
2018-07-05T02:29:26.552Z,2.00
2018-07-05T02:30:26.972Z,2.00
2018-07-05T02:31:26.516Z,3.00
2018-07-05T02:32:26.880Z,4.00
2018-07-05T02:33:48.393Z,4.00
2018-07-05T02:35:31.798Z,5.00
2018-07-05T02:36:32.484Z,5.00
2018-07-05T02:37:31.924Z,6.00
2018-07-05T02:38:32.515Z,7.00
2018-07-05T02:39:31.977Z,8.00
2018-07-05T02:40:32.667Z,9.00
2018-07-05T02:41:32.565Z,11.00
2018-07-05T02:42:32.073Z,12.00
2018-07-05T02:43:31.645Z,13.00
2018-07-05T02:44:53.799Z,15.00
2018-07-05T02:45:54.667Z,17.00
2018-07-05T02:46:54.102Z,19.00
2018-07-05T02:47:54.791Z,21.00
2018-07-05T02:48:54.778Z,24.00
2018-07-05T02:49:54.270Z,27.00
2018-07-05T02:51:18.086Z,33.00
2018-07-05T02:52:40.071Z,37.00
2018-07-05T02:53:40.731Z,42.00
2018-07-05T02:54:40.066Z,46.00
2018-07-05T02:56:02.022Z,54.00
2018-07-05T02:57:02.532Z,59.00
2018-07-05T02:58:01.902Z,66.00
2018-07-05T02:59:02.619Z,73.00
2018-07-05T03:00:02.339Z,81.00
2018-07-05T03:01:02.885Z,89.00
2018-07-05T03:02:02.693Z,98.00
2018-07-05T03:03:02.652Z,108.00
2018-07-05T03:04:02.755Z,118.00
2018-07-05T03:05:02.577Z,128.00
2018-07-05T03:06:02.646Z,140.00
2018-07-05T03:07:45.725Z,161.00
2018-07-05T03:08:45.687Z,175.00
2018-07-05T03:09:45.568Z,189.00
2018-07-05T03:10:45.896Z,204.00
2018-07-05T03:11:48.089Z,221.00
2018-07-05T03:13:31.693Z,249.00
2018-07-05T03:14:33.384Z,266.00
2018-07-05T03:15:32.005Z,284.00
2018-07-05T03:16:32.249Z,303.00
2018-07-05T03:17:53.322Z,331.00
2018-07-05T03:18:54.318Z,352.00
2018-07-05T03:19:54.182Z,373.00
2018-07-05T03:20:53.823Z,395.00
2018-07-05T03:21:53.821Z,418.00
2018-07-05T03:22:53.313Z,440.00
2018-07-05T03:23:53.951Z,466.00
2018-07-05T03:24:53.715Z,490.00
2018-07-05T03:25:53.549Z,518.00
2018-07-05T03:27:15.214Z,549.00
2018-07-05T03:28:15.887Z,578.00
2018-07-05T03:29:15.587Z,608.00
2018-07-05T03:30:16.115Z,642.00
2018-07-05T03:31:16.010Z,676.00
2018-07-05T03:32:37.000Z,724.00
2018-07-05T03:33:37.526Z,757.00
2018-07-05T03:34:37.028Z,789.00
2018-07-05T03:35:37.947Z,821.00
2018-07-05T03:36:37.713Z,852.00
2018-07-05T03:37:37.689Z,879.00
2018-07-05T03:38:37.283Z,908.00
2018-07-05T03:39:58.980Z,961.00
2018-07-05T03:40:59.961Z,1001.00
2018-07-05T03:41:59.798Z,1042.00
2018-07-05T03:42:59.277Z,1083.00
2018-07-05T03:44:00.254Z,1122.00
2018-07-05T03:44:59.855Z,1164.00
2018-07-05T03:45:59.500Z,1197.00
2018-07-05T03:47:20.391Z,1249.00
2018-07-05T03:48:21.067Z,1280.00
2018-07-05T03:49:20.632Z,1315.00
2018-07-05T03:50:21.535Z,1348.00
2018-07-05T03:51:21.491Z,1375.00
2018-07-05T03:52:21.348Z,1397.00
2018-07-05T03:53:42.412Z,1428.00
2018-07-05T03:54:42.982Z,1455.00
2018-07-05T03:55:42.762Z,1482.00
2018-07-05T03:56:43.393Z,1488.00
2018-07-05T03:57:43.174Z,1488.00
2018-07-05T03:58:42.858Z,1490.00
2018-07-05T03:59:42.650Z,1504.00
2018-07-05T04:00:43.445Z,1518.00
2018-07-05T04:01:43.278Z,1548.00
2018-07-05T04:02:42.764Z,1594.00
2018-07-05T04:03:43.418Z,1642.00
2018-07-05T04:04:42.795Z,1698.00
2018-07-05T04:05:42.505Z,1755.00
2018-07-05T04:06:43.494Z,1814.00
2018-07-05T04:07:43.305Z,1872.00
2018-07-05T04:08:43.092Z,1929.00
2018-07-05T04:09:42.763Z,1968.00
2018-07-05T04:10:43.522Z,2004.00
2018-07-05T04:11:43.004Z,2052.00
2018-07-05T04:12:42.535Z,2089.00
2018-07-05T04:14:05.030Z,2148.00
2018-07-05T04:15:05.794Z,2208.00
2018-07-05T04:16:05.632Z,2260.00
2018-07-05T04:17:05.504Z,2310.00
2018-07-05T04:18:05.346Z,2371.00
2018-07-05T04:19:05.004Z,2414.00
2018-07-05T04:20:05.542Z,2488.00
2018-07-05T04:21:07.916Z,2575.00
2018-07-05T04:22:13.579Z,2643.00
2018-07-05T04:23:05.298Z,2704.00
2018-07-05T04:24:05.280Z,2752.00
2018-07-05T04:25:05.234Z,2800.00
2018-07-05T04:26:05.095Z,2847.00
2018-07-05T04:27:04.789Z,2901.00
2018-07-05T04:28:05.571Z,2955.00
2018-07-05T04:29:05.091Z,3004.00
2018-07-05T04:30:06.811Z,3116.00
2018-07-05T04:31:05.362Z,3229.00
2018-07-05T04:32:05.237Z,3276.00
2018-07-05T04:33:05.389Z,3343.00
2018-07-05T04:34:04.889Z,3391.00
2018-07-05T04:35:05.947Z,3464.00
2018-07-05T04:36:05.372Z,3524.00
2018-07-05T04:37:04.790Z,3547.00
2018-07-05T04:38:05.389Z,3645.00
2018-07-05T04:39:04.814Z,3723.00
2018-07-05T04:40:05.807Z,3790.00
2018-07-05T04:41:05.467Z,3835.00
2018-07-05T04:42:05.107Z,3899.00
2018-07-05T04:43:04.619Z,3952.00
2018-07-05T04:44:05.363Z,4003.00
2018-07-05T04:45:04.979Z,4070.00
2018-07-05T04:46:26.877Z,4150.00
2018-07-05T04:47:27.716Z,4211.00
2018-07-05T04:48:27.475Z,4287.00
2018-07-05T04:49:27.228Z,4353.00
2018-07-05T04:50:27.929Z,4392.00
2018-07-05T04:51:33.956Z,4406.00
2018-07-05T04:52:27.448Z,4429.00
2018-07-05T04:53:27.081Z,4458.00
2018-07-05T04:54:27.648Z,4488.00
2018-07-05T04:55:27.159Z,4519.00
2018-07-05T04:56:27.778Z,4522.00
2018-07-05T04:57:27.132Z,4603.00
2018-07-05T04:58:27.773Z,4674.00
2018-07-05T04:59:27.372Z,4841.00
2018-07-05T05:00:27.214Z,4883.00
2018-07-05T05:01:27.112Z,5047.00
2018-07-05T05:02:27.847Z,5299.00
2018-07-05T05:03:27.569Z,6170.00
2018-07-05T05:04:27.310Z,6102.00
2018-07-05T05:05:27.149Z,5323.00
2018-07-05T05:06:26.914Z,5382.00
2018-07-05T05:07:27.457Z,5542.00
2018-07-05T05:08:27.428Z,5539.00
2018-07-05T05:09:48.330Z,5860.00
2018-07-05T05:10:48.827Z,5630.00
2018-07-05T05:11:49.399Z,5534.00
2018-07-05T05:12:49.076Z,5546.00
2018-07-05T05:13:48.930Z,5660.00
2018-07-05T05:14:48.547Z,5677.00
2018-07-05T05:15:49.787Z,5770.00
2018-07-05T05:16:48.398Z,5818.00
2018-07-05T05:17:49.323Z,5896.00
2018-07-05T05:18:49.353Z,5837.00
2018-07-05T05:19:49.345Z,6002.00
2018-07-05T05:20:49.613Z,6287.00
2018-07-05T05:22:11.554Z,6357.00
2018-07-05T05:23:12.377Z,6334.00
2018-07-05T05:24:12.348Z,7267.00
2018-07-05T05:25:13.739Z,7758.00
2018-07-05T05:26:11.425Z,6984.00
2018-07-05T05:27:11.180Z,7251.00
2018-07-05T05:28:11.772Z,7018.00
2018-07-05T05:29:11.752Z,6753.00
2018-07-05T05:30:11.419Z,6870.00
2018-07-05T05:31:12.236Z,6843.00
2018-07-05T05:32:11.801Z,7161.00
2018-07-05T05:33:11.385Z,7133.00
2018-07-05T05:34:33.595Z,7075.00
2018-07-05T05:35:34.364Z,7206.00
2018-07-05T05:36:33.936Z,7018.00
2018-07-05T05:37:33.594Z,7066.00
2018-07-05T05:38:34.689Z,7237.00
2018-07-05T05:39:56.639Z,7425.00
2018-07-05T05:40:57.511Z,7422.00
2018-07-05T05:41:58.410Z,7210.00
2018-07-05T05:42:57.556Z,7443.00
2018-07-05T05:43:57.327Z,7479.00
2018-07-05T05:44:57.069Z,7633.00
2018-07-05T05:45:56.783Z,7713.00
2018-07-05T05:46:57.611Z,7656.00
2018-07-05T05:47:58.406Z,7556.00
2018-07-05T05:48:57.657Z,7729.00
2018-07-05T05:49:57.305Z,7659.00
2018-07-05T05:50:56.881Z,7710.00
2018-07-05T05:51:57.502Z,7646.00
2018-07-05T05:52:58.038Z,7798.00
2018-07-05T05:53:57.396Z,7871.00
2018-07-05T05:54:58.430Z,8102.00
2018-07-05T05:56:18.290Z,8150.00
2018-07-05T05:57:19.046Z,8285.00
2018-07-05T05:58:18.727Z,8398.00
2018-07-05T05:59:18.990Z,8455.00
2018-07-05T06:00:19.899Z,8442.00
2018-07-05T06:01:18.652Z,8539.00
2018-07-05T06:02:18.392Z,8688.00
2018-07-05T06:03:19.297Z,8745.00
2018-07-05T06:04:19.777Z,8862.00
2018-07-05T06:05:18.575Z,9053.00
2018-07-05T06:06:19.552Z,9178.00
2018-07-05T06:08:26.248Z,9091.00
2018-07-05T06:09:27.151Z,9274.00
2018-07-05T06:10:26.880Z,9376.00
2018-07-05T06:11:28.772Z,9652.00
2018-07-05T06:12:27.003Z,9501.00
2018-07-05T06:13:27.049Z,9625.00
2018-07-05T06:14:27.978Z,9616.00
2018-07-05T06:15:26.503Z,9838.00
2018-07-05T06:16:26.513Z,9892.00
2018-07-05T06:17:26.738Z,10168.00
2018-07-05T06:18:26.720Z,10100.00
2018-07-05T06:19:27.478Z,10314.00
2018-07-05T06:20:26.920Z,10484.00
2018-07-05T06:21:26.943Z,10540.00
2018-07-05T06:22:27.702Z,10635.00
2018-07-05T06:23:26.478Z,10999.00
2018-07-05T06:24:26.228Z,11204.00
2018-07-05T06:25:27.132Z,11510.00
2018-07-05T06:26:26.883Z,11795.00
2018-07-05T06:27:26.734Z,11649.00
2018-07-05T06:28:26.689Z,11740.00
2018-07-05T06:29:26.642Z,12117.00
2018-07-05T06:30:26.429Z,12107.00
2018-07-05T06:31:26.231Z,12090.00
2018-07-05T06:32:27.060Z,12218.00
2018-07-05T06:33:26.730Z,12291.00
2018-07-05T06:35:09.391Z,12372.00
2018-07-05T06:36:10.107Z,12434.00
2018-07-05T06:38:14.624Z,12762.00
2018-07-05T06:39:15.507Z,12927.00
2018-07-05T06:40:15.427Z,12984.00
2018-07-05T06:41:15.102Z,13196.00
2018-07-05T06:42:15.241Z,13174.00
2018-07-05T06:43:15.244Z,13286.00
2018-07-05T06:44:15.116Z,13278.00
2018-07-05T06:45:14.884Z,13630.00
2018-07-05T06:46:14.870Z,14043.00
2018-07-05T06:47:14.752Z,13862.00
2018-07-05T06:48:46.868Z,13783.00
2018-07-05T06:49:47.627Z,14128.00
2018-07-05T06:50:47.437Z,14977.00
2018-07-05T06:51:46.979Z,14339.00
2018-07-05T06:52:47.623Z,14462.00
2018-07-05T06:53:47.372Z,16976.00
2018-07-05T06:54:47.314Z,17528.00
2018-07-05T06:55:47.606Z,12776.00
2018-07-05T06:57:09.115Z,10392.00
2018-07-05T06:58:09.728Z,38480.00
2018-07-05T06:59:09.885Z,32576.00
2018-07-05T07:00:31.334Z,42648.00
2018-07-05T07:01:31.978Z,40056.00
2018-07-05T07:02:31.982Z,27224.00
2018-07-05T07:03:55.135Z,45544.00
2018-07-05T07:04:55.783Z,46144.00
2018-07-05T07:05:55.396Z,43552.00
2018-07-05T07:06:55.042Z,65535.00
2018-07-05T07:07:55.882Z,47936.00
2018-07-05T07:08:55.945Z,40272.00
2018-07-05T07:09:55.840Z,65535.00
2018-07-05T07:10:55.845Z,50312.00
2018-07-05T07:11:55.340Z,51064.00
2018-07-05T07:12:56.134Z,50264.00
2018-07-05T07:13:55.917Z,50128.00
2018-07-05T07:14:55.803Z,43224.00
2018-07-05T07:15:56.080Z,50120.00
2018-07-05T07:16:55.888Z,52648.00
2018-07-05T07:17:56.087Z,52248.00
2018-07-05T07:18:55.713Z,43456.00
2018-07-05T07:19:55.739Z,52640.00
2018-07-05T07:20:55.615Z,52016.00
2018-07-05T07:21:55.616Z,18224.00
2018-07-05T07:22:55.664Z,38168.00
2018-07-05T07:23:55.288Z,23040.00
2018-07-05T07:24:56.102Z,56888.00
2018-07-05T07:25:55.984Z,24304.00
2018-07-05T07:26:56.062Z,26664.00
2018-07-05T07:27:56.113Z,52688.00
2018-07-05T07:28:55.708Z,13104.00
2018-07-05T07:29:55.708Z,59048.00
2018-07-05T07:30:55.606Z,23848.00
2018-07-05T07:31:55.705Z,65535.00
2018-07-05T07:32:55.414Z,24976.00
2018-07-05T07:34:39.108Z,55248.00
2018-07-05T07:35:39.895Z,41928.00
2018-07-05T07:36:40.130Z,57544.00
2018-07-05T07:38:23.399Z,60592.00
2018-07-05T07:39:24.017Z,46552.00
2018-07-05T07:40:23.762Z,64336.00
2018-07-05T07:41:23.551Z,62576.00
2018-07-05T07:42:45.562Z,11016.00
2018-07-05T07:43:46.526Z,24072.00
2018-07-05T07:44:46.264Z,17128.00
2018-07-05T07:45:46.098Z,15504.00
2018-07-05T07:46:45.805Z,17736.00
2018-07-05T07:48:07.793Z,14269.00
2018-07-05T07:49:07.768Z,14640.00
2018-07-05T07:50:07.785Z,14507.00
2018-07-05T07:51:07.456Z,14142.00
2018-07-05T07:52:08.200Z,14298.00
2018-07-05T07:53:08.645Z,14366.00
2018-07-05T07:54:07.470Z,13891.00
2018-07-05T07:55:09.261Z,13863.00
2018-07-05T07:56:17.782Z,14126.00
2018-07-05T07:57:10.139Z,14414.00
2018-07-05T07:58:07.767Z,14559.00
2018-07-05T07:59:07.677Z,14502.00
2018-07-05T08:00:07.633Z,15304.00
2018-07-05T08:01:08.549Z,15816.00
2018-07-05T08:02:08.450Z,15224.00
2018-07-05T08:03:08.256Z,15368.00
2018-07-05T08:04:07.818Z,65535.00
2018-07-05T08:05:07.563Z,24880.00
2018-07-05T08:06:08.290Z,26616.00
2018-07-05T08:07:08.038Z,52416.00
2018-07-05T08:08:07.791Z,19704.00
2018-07-05T08:09:07.681Z,45992.00
2018-07-05T08:10:07.419Z,17384.00
2018-07-05T08:11:08.498Z,15247.00
2018-07-05T08:12:08.151Z,12432.00
2018-07-05T08:13:08.042Z,15025.00
2018-07-05T08:14:07.808Z,31688.00
2018-07-05T08:15:07.342Z,15784.00
2018-07-05T08:16:08.038Z,32848.00
2018-07-05T08:17:08.775Z,35960.00
2018-07-05T08:18:07.377Z,27272.00
2018-07-05T08:19:08.076Z,63232.00
2018-07-05T08:20:07.993Z,27816.00
2018-07-05T08:21:08.368Z,16816.00
2018-07-05T08:22:08.242Z,18440.00
2018-07-05T08:23:08.754Z,16496.00
2018-07-05T08:24:07.631Z,16064.00
2018-07-05T08:25:08.784Z,24264.00
2018-07-05T08:26:07.515Z,17592.00
2018-07-05T08:27:08.299Z,24712.00
2018-07-05T08:28:08.038Z,36144.00
2018-07-05T08:29:08.042Z,42328.00
2018-07-05T08:30:07.911Z,17568.00
2018-07-05T08:31:29.312Z,15856.00
2018-07-05T08:32:29.375Z,16448.00
2018-07-05T08:33:29.197Z,16544.00
2018-07-05T08:34:30.160Z,17192.00
2018-07-05T08:35:29.829Z,17088.00
2018-07-05T08:36:51.488Z,17512.00
2018-07-05T08:37:52.055Z,17912.00
2018-07-05T08:38:54.238Z,18072.00
2018-07-05T08:39:51.859Z,22536.00
2018-07-05T08:40:51.881Z,36912.00
2018-07-05T08:42:34.511Z,65535.00
2018-07-05T08:43:35.928Z,54736.00
2018-07-05T08:44:34.571Z,65535.00
2018-07-05T08:45:35.328Z,65535.00
2018-07-05T08:46:35.156Z,59104.00
2018-07-05T08:47:34.828Z,35928.00
2018-07-05T08:48:34.701Z,22048.00
2018-07-05T08:49:34.458Z,65535.00
2018-07-05T08:50:56.122Z,65535.00
2018-07-05T08:51:56.643Z,65535.00
2018-07-05T08:53:17.341Z,21176.00
2018-07-05T08:54:18.132Z,20592.00
2018-07-05T08:55:17.691Z,21112.00
2018-07-05T08:56:18.543Z,19640.00
2018-07-05T08:57:18.080Z,19240.00
2018-07-05T08:58:17.928Z,18080.00
2018-07-05T08:59:17.820Z,18320.00
2018-07-05T09:00:18.674Z,65064.00
2018-07-05T09:01:17.457Z,18744.00
2018-07-05T09:02:18.519Z,19080.00
2018-07-05T09:03:18.189Z,18464.00
2018-07-05T09:04:17.733Z,20560.00
2018-07-05T09:05:17.468Z,18856.00
2018-07-05T09:06:18.155Z,46624.00
2018-07-05T09:07:40.737Z,19576.00
2018-07-05T09:08:41.614Z,43976.00
2018-07-05T09:09:41.730Z,22264.00
2018-07-05T09:11:03.597Z,19800.00
2018-07-05T09:12:26.280Z,22864.00
2018-07-05T09:13:25.996Z,21584.00
2018-07-05T09:14:26.582Z,32904.00
2018-07-05T09:15:26.855Z,21480.00
2018-07-05T09:16:26.350Z,18952.00
2018-07-05T09:17:26.129Z,20752.00
2018-07-05T09:18:26.064Z,52832.00
2018-07-05T09:19:26.696Z,20800.00
2018-07-05T09:20:26.190Z,56328.00
2018-07-05T09:21:27.051Z,20200.00
2018-07-05T09:22:28.201Z,18624.00
2018-07-05T09:23:27.847Z,18168.00
2018-07-05T09:24:26.663Z,32176.00
2018-07-05T09:25:26.329Z,45264.00
2018-07-05T09:26:26.230Z,55136.00
2018-07-05T09:27:47.169Z,52592.00
2018-07-05T09:28:47.739Z,65535.00
2018-07-05T09:29:47.653Z,65535.00
2018-07-05T09:30:47.318Z,33080.00
2018-07-05T09:32:31.255Z,28000.00
2018-07-05T09:33:31.985Z,22128.00
2018-07-05T09:34:31.887Z,12576.00
2018-07-05T09:35:31.862Z,4952.00
2018-07-05T09:36:56.561Z,22192.00
2018-07-05T09:37:56.748Z,22864.00
2018-07-05T09:38:56.608Z,20104.00
2018-07-05T09:40:17.603Z,21376.00
2018-07-05T09:41:18.292Z,21568.00
2018-07-05T09:42:18.159Z,24456.00
2018-07-05T09:43:39.788Z,22960.00
2018-07-05T09:44:40.068Z,25872.00
2018-07-05T09:45:39.818Z,65535.00
2018-07-05T09:47:00.995Z,22880.00
2018-07-05T09:48:01.690Z,24632.00
2018-07-05T09:49:01.520Z,65535.00
2018-07-05T09:50:22.942Z,27208.00
2018-07-05T09:51:22.626Z,26200.00
2018-07-05T09:52:23.502Z,0.00
2018-07-05T09:53:23.200Z,31360.00
2018-07-05T09:54:22.789Z,55912.00
2018-07-05T09:55:22.472Z,65535.00
2018-07-05T09:56:23.335Z,65535.00
2018-07-05T09:57:22.922Z,65535.00
2018-07-05T09:59:05.084Z,28880.00
2018-07-05T10:00:06.172Z,65535.00
2018-07-05T10:01:05.827Z,65535.00
2018-07-05T10:02:05.370Z,65535.00
2018-07-05T10:03:05.845Z,65535.00
2018-07-05T10:04:05.561Z,65535.00
2018-07-05T10:05:05.363Z,65535.00
2018-07-05T10:06:28.043Z,65535.00
2018-07-05T10:07:28.695Z,65535.00
2018-07-05T10:08:28.655Z,65535.00
2018-07-05T10:09:28.589Z,65535.00
2018-07-05T10:10:28.362Z,65535.00
2018-07-05T10:11:27.991Z,65535.00
2018-07-05T10:12:50.178Z,65535.00
2018-07-05T10:13:51.397Z,65535.00
2018-07-05T10:14:50.301Z,65535.00
2018-07-05T10:15:50.918Z,65535.00
2018-07-05T10:16:50.776Z,65535.00
2018-07-05T10:17:50.486Z,65535.00
2018-07-05T10:18:50.397Z,65535.00
2018-07-05T10:19:51.048Z,65535.00
2018-07-05T10:20:50.685Z,65535.00
2018-07-05T10:22:34.269Z,65535.00
2018-07-05T10:23:34.286Z,65535.00
2018-07-05T10:24:34.292Z,65535.00
2018-07-05T10:25:33.907Z,65535.00
2018-07-05T10:26:33.930Z,65535.00
2018-07-05T10:27:34.638Z,65535.00
2018-07-05T10:28:34.488Z,65535.00
2018-07-05T10:29:35.676Z,65535.00
2018-07-05T10:30:34.240Z,65535.00
2018-07-05T10:31:33.979Z,65535.00
2018-07-05T10:32:56.403Z,65535.00
2018-07-05T10:33:57.062Z,65535.00
2018-07-05T10:34:57.002Z,37664.00
2018-07-05T10:35:56.462Z,65535.00
2018-07-05T10:36:56.287Z,65535.00
2018-07-05T10:37:57.144Z,65535.00
2018-07-05T10:38:56.947Z,65535.00
2018-07-05T10:39:56.561Z,65535.00
2018-07-05T10:40:56.872Z,65535.00
2018-07-05T10:41:56.444Z,65535.00
2018-07-05T10:42:57.018Z,65535.00
2018-07-05T10:43:56.848Z,65535.00
2018-07-05T10:45:00.961Z,65535.00
2018-07-05T10:45:57.211Z,65535.00
2018-07-05T10:47:21.143Z,65535.00
2018-07-05T10:48:25.284Z,65535.00
2018-07-05T10:49:24.812Z,65535.00
2018-07-05T10:50:20.953Z,65535.00
2018-07-05T10:51:20.874Z,65535.00
2018-07-05T10:52:21.255Z,65535.00
2018-07-05T10:53:21.154Z,65535.00
2018-07-05T10:54:20.771Z,65535.00
2018-07-05T10:55:20.550Z,65535.00
2018-07-05T10:56:21.341Z,65535.00
2018-07-05T10:57:43.461Z,40408.00
2018-07-05T10:59:04.834Z,65535.00
2018-07-05T11:00:05.843Z,65535.00
2018-07-05T11:01:05.685Z,65535.00
2018-07-05T11:02:05.654Z,65535.00
2018-07-05T11:03:26.992Z,65535.00
2018-07-05T11:04:48.349Z,30008.00
2018-07-05T11:05:49.054Z,65535.00
2018-07-05T11:07:31.926Z,65535.00
2018-07-05T11:08:32.586Z,47744.00
2018-07-05T11:09:54.239Z,65535.00
2018-07-05T11:10:55.065Z,65535.00
2018-07-05T11:11:54.524Z,65535.00
2018-07-05T11:13:16.007Z,65535.00
2018-07-05T11:14:38.912Z,65535.00
2018-07-05T11:15:39.453Z,65535.00
2018-07-05T11:16:39.221Z,65535.00
2018-07-05T11:17:39.094Z,62112.00
2018-07-05T11:18:40.318Z,65535.00
2018-07-05T11:19:39.196Z,65535.00
2018-07-05T11:20:40.270Z,26112.00
2018-07-05T11:21:38.990Z,65535.00
2018-07-05T11:22:38.962Z,65535.00
2018-07-05T11:23:38.723Z,65535.00
2018-07-05T11:25:45.229Z,65535.00
2018-07-05T11:26:45.969Z,12312.00
2018-07-05T11:27:45.669Z,60696.00
2018-07-05T11:28:45.304Z,50376.00
2018-07-05T11:29:46.062Z,65535.00
2018-07-05T11:30:45.909Z,65535.00
2018-07-05T11:31:45.897Z,65535.00
2018-07-05T11:33:09.254Z,59120.00
2018-07-05T11:34:09.259Z,65535.00
2018-07-05T11:35:31.637Z,65535.00
2018-07-05T11:36:32.256Z,65535.00
2018-07-05T11:37:31.779Z,65535.00
2018-07-05T11:38:32.804Z,65535.00
2018-07-05T11:39:54.044Z,65535.00
2018-07-05T11:40:53.853Z,65535.00
2018-07-05T11:41:54.386Z,65535.00
2018-07-05T11:42:54.257Z,65535.00
2018-07-05T11:43:54.382Z,65535.00
2018-07-05T11:45:15.299Z,65535.00
2018-07-05T11:46:16.346Z,65535.00
2018-07-05T11:47:16.249Z,19856.00
2018-07-05T11:48:37.215Z,65535.00
2018-07-05T11:49:37.990Z,65535.00
2018-07-05T11:50:38.092Z,65535.00
2018-07-05T11:51:38.558Z,65535.00
2018-07-05T11:52:39.162Z,65535.00
2018-07-05T11:53:38.272Z,65535.00
2018-07-05T11:54:38.208Z,65535.00
2018-07-05T11:55:38.129Z,65535.00
2018-07-05T11:56:37.935Z,17390.00
2018-07-05T11:57:38.229Z,65535.00
2018-07-05T11:58:38.124Z,53832.00
2018-07-05T11:59:38.042Z,63432.00
2018-07-05T12:00:40.850Z,65535.00
2018-07-05T12:01:37.407Z,65535.00
2018-07-05T12:02:38.368Z,65535.00
2018-07-05T12:03:38.036Z,0.00
2018-07-05T12:04:59.058Z,65535.00
2018-07-05T12:05:59.784Z,63136.00
2018-07-05T12:06:59.395Z,65535.00
2018-07-05T12:07:59.274Z,65535.00
2018-07-05T12:09:00.130Z,54248.00
2018-07-05T12:09:59.875Z,65535.00
2018-07-05T12:10:59.840Z,27712.00
2018-07-05T12:12:23.092Z,65535.00
2018-07-05T12:13:22.815Z,65535.00
2018-07-05T12:14:22.866Z,65535.00
2018-07-05T12:15:22.348Z,62232.00
2018-07-05T12:16:22.372Z,65535.00
2018-07-05T12:17:21.999Z,65535.00
2018-07-05T12:18:23.052Z,21032.00
2018-07-05T12:19:22.973Z,0.00
2018-07-05T12:20:23.271Z,65535.00
2018-07-05T12:21:22.511Z,22160.00
2018-07-05T12:22:22.402Z,65535.00
2018-07-05T12:23:22.303Z,65535.00
2018-07-05T12:24:21.883Z,65535.00
2018-07-05T12:25:22.677Z,65535.00
2018-07-05T12:26:22.854Z,65535.00
2018-07-05T12:27:22.777Z,65216.00
2018-07-05T12:28:22.468Z,65535.00
2018-07-05T12:29:24.242Z,65535.00
2018-07-05T12:30:22.111Z,65535.00
2018-07-05T12:31:23.030Z,65535.00
2018-07-05T12:32:22.714Z,65535.00
2018-07-05T12:33:22.554Z,65535.00
2018-07-05T12:34:22.274Z,65535.00
2018-07-05T12:35:21.939Z,57920.00
2018-07-05T12:36:22.830Z,65535.00
2018-07-05T12:37:23.108Z,65535.00
2018-07-05T12:38:24.264Z,65535.00
2018-07-05T12:39:22.225Z,65535.00
2018-07-05T12:40:22.305Z,43560.00
2018-07-05T12:41:22.089Z,65535.00
2018-07-05T12:42:21.870Z,65535.00
2018-07-05T12:43:23.503Z,41136.00
2018-07-05T12:44:43.552Z,65535.00
2018-07-05T12:45:45.428Z,53992.00
2018-07-05T12:46:43.919Z,3544.00
2018-07-05T12:47:44.802Z,65535.00
2018-07-05T12:48:44.704Z,62536.00